Tiempo atmosférico en la estación meteorológica de Aguilar de la Frontera, Córdoba (305 m.)



Fecha
DESCASC
Temp. máxima en grados centígrados (hora)
DESCASC
Temp. mínima en grados centígrados (hora)
DESCASC
Temp. media en grados centígrados
DESCASC
Racha de viento máxima en m/sg (hora)
DESCASC
Velocidad máxima media en intervalos de 10 minutos(hora)
DESCASC
Precipitaciones diarias en mm
DESCASC
Precipitaciones de 00:00 a 06:00 en mm
DESCASC
Precipitaciones de 06:00 a 12:00 en mm
DESCASC
Precipitaciones de 12:00 a 18:00 en mm
DESCASC
Precipitaciones de 18:00 a 24:00 en mm
DESCASC
16-06-2019 31.6 (19:30) 11.3 (06:00) 21.5 9.17 (15:30) 5 (15:50) 0 0 0 0 0
15-06-2019 30.2 (19:30) 9 (07:10) 19.6 6.94 (00:20) 3.89 (00:10) 0 0 0 0 0
14-06-2019 23.4 (15:50) 15.3 (07:30) 19.3 13.61 (16:30) 8.06 (12:10) 0 0 0 0 0
13-06-2019 29.1 (17:50) 14.2 (00:00) 21.7 10.56 (20:50) 6.94 (20:30) 0 0 0 0 0
12-06-2019 28.8 (17:30) 12.7 (00:00) 20.7 8.89 (15:00) 5 (14:20) 0 0 0 0 0
11-06-2019 29.2 (18:30) 11.4 (00:00) 20.3 10.56 (15:30) 6.39 (18:00) 0 0 0 0 0
10-06-2019 28.6 (18:30) 10.7 (00:00) 19.7 11.39 (20:40) 7.78 (20:40) 0 0 0 0 0
09-06-2019 28.2 (18:00) 15.4 (00:00) 21.8 13.33 (21:20) 7.22 (21:10) 0 0 0 0 0
08-06-2019 30.3 (16:00) 10.5 (00:00) 20.4 10.56 (14:00) 6.67 (17:40) 0 0 0 0 0
07-06-2019 26.6 (19:30) 13.9 (00:00) 20.3 8.06 (00:50) 5 (01:00) 0.2 0 0.2 0 0
06-06-2019 27.3 (17:30) 9.1 (00:00) 18.2 11.67 (19:20) 7.5 (19:10) 0 0 0 0 0
05-06-2019 24.8 (17:10) 13.7 (00:00) 19.2 10.83 (04:40) 7.5 (04:40) 0 0 0 0 0
04-06-2019 31 (17:10) 16 (00:00) 23.5 12.5 (19:50) 8.61 (19:00) 0 0 0 0 0
03-06-2019 35.9 (17:50) 17.5 (00:00) 26.7 8.61 (00:10) 5.83 (05:00) 0 0 0 0 0
02-06-2019 34.7 (18:20) 13.6 (00:00) 24.2 8.89 (01:00) 5.83 (01:00) 0 0 0 0 0
01-06-2019 32.1 (16:20) 12.4 (00:00) 22.2 10.28 (20:30) 6.94 (20:30) 0 0 0 0 0
31-05-2019 31.6 (16:30) 12 (00:00) 21.8 9.44 (19:50) 5.83 (17:40) 0 0 0 0 0
30-05-2019 29.3 (16:10) 14.7 (00:00) 22 10 (20:10) 6.67 (19:40) 0 0 0 0 0
29-05-2019 31.7 (16:40) 17.4 (00:00) 24.6 8.61 (23:59) 6.11 (23:59) 0 0 0 0 0
28-05-2019 34.2 (17:20) 15.6 (00:00) 24.9 8.61 (21:30) 5.28 (21:50) 0 0 0 0 0
27-05-2019 33.5 (17:30) 13.4 (00:00) 23.4 10 (21:10) 5.83 (21:20) 0 0 0 0 0
26-05-2019 30.9 (18:20) 14.5 (00:00) 22.7 9.17 (16:30) 4.44 (06:20) 0 0 0 0 0
25-05-2019 28.5 (18:10) 14.2 (00:00) 21.3 8.33 (18:10) 5 (12:50) 0 0 0 0 0
24-05-2019 30.1 (18:30) 13.9 (00:00) 22 9.72 (22:30) 5.83 (22:00) 0 0 0 0 0
23-05-2019 31.7 (17:20) 14.9 (00:00) 23.3 8.33 (19:40) 5.56 (19:40) 0 0 0 0 0
22-05-2019 30.6 (16:30) 13.1 (00:00) 21.9 6.39 (19:50) 4.17 (22:20) 0 0 0 0 0

Gráficas

Temp. máximas Temp. mínimas Temp. medias Precipitaciones Rachas de viento máximas Velocidades máximas media en intervalos de 10 minutos

Datos horarios

Fecha y hora oficial Temperatura (ºC) Velocidad del viento (km/h) Dirección del viento Racha (km/h) Dirección de racha Precipitación (mm) Presión (hPa) Tendencia (hPa) Humedad (%)
2019-06-20 23:00:00 -- -- -- -- -- -- -- -- --
2019-06-20 22:00:00 -- -- -- -- -- -- -- -- --
2019-06-20 21:00:00 25.4 13 Oeste 22 Sudoeste 0 -- -- 47
2019-06-20 20:00:00 26.5 13 Sudoeste 31 Sudoeste 0 -- -- 39
2019-06-20 19:00:00 26.6 19 Oeste 35 Sudoeste 0 -- -- 38
2019-06-20 18:00:00 27.3 23 Sudoeste 38 Oeste 0 -- -- 37
2019-06-20 17:00:00 27.5 20 Oeste 35 Sudoeste 0 -- -- 37
2019-06-20 16:00:00 27.8 19 Oeste 36 Oeste 0 -- -- 39
2019-06-20 15:00:00 27.1 19 Oeste 33 Sudoeste 0 -- -- 44
2019-06-20 14:00:00 25.6 15 Oeste 28 Oeste 0 -- -- 52
2019-06-20 13:00:00 24.8 12 Oeste 22 Oeste 0 -- -- 55
2019-06-20 12:00:00 22.7 11 Oeste 18 Oeste 0 -- -- 61
2019-06-20 11:00:00 20.4 8 Sudoeste 18 Oeste 0 -- -- 70
2019-06-20 10:00:00 18.7 7 Oeste 17 Sudoeste 0 -- -- 75
2019-06-20 09:00:00 18.1 10 Oeste 19 Oeste 0 -- -- 78
2019-06-20 08:00:00 17.6 7 Oeste 12 Oeste 0 -- -- 79
2019-06-20 07:00:00 15.7 0 Calma 5 Este 0 -- -- 84
2019-06-20 06:00:00 14 0 Calma 8 Sudeste 0 -- -- 83
2019-06-20 05:00:00 15.6 6 Sur 9 Sur 0 -- -- 82
2019-06-20 04:00:00 15.4 0 Calma 4 Sudeste 0 -- -- 79
2019-06-20 03:00:00 16.5 3 Sur 6 Oeste 0 -- -- 77
2019-06-20 02:00:00 17.3 5 Sudoeste 17 Oeste 0 -- -- 76
2019-06-20 01:00:00 18.1 10 Oeste 29 Sudoeste 0 -- -- 76
2019-06-20 00:00:00 19.3 16 Oeste 34 Sudoeste 0 -- -- 72
2019-06-19 23:00:00 21.1 16 Oeste 33 Sudoeste 0 -- -- 65
2019-06-19 22:00:00 24 17 Oeste 27 Oeste 0 -- -- 54
2019-06-19 21:00:00 27.3 14 Sudoeste 24 Sudoeste 0 -- -- 38
2019-06-19 20:00:00 28.7 18 Oeste 28 Sudoeste 0 -- -- 35
2019-06-19 19:00:00 29.3 13 Oeste 28 Oeste 0 -- -- 35
2019-06-19 18:00:00 29.6 12 Oeste 24 Sudoeste 0 -- -- 35
2019-06-19 17:00:00 29 11 Sudoeste 23 Oeste 0 -- -- 38
2019-06-19 16:00:00 27.6 11 Oeste 23 Oeste 0 -- -- 41
2019-06-19 15:00:00 26.5 9 Sudoeste 26 Norte 0 -- -- 44
2019-06-19 14:00:00 25.2 10 Oeste 20 Oeste 0 -- -- 47
2019-06-19 13:00:00 23.8 8 Oeste 18 Oeste 0 -- -- 54
2019-06-19 12:00:00 22 8 Oeste 17 Oeste 0 -- -- 60
2019-06-19 11:00:00 19.7 5 Sur 12 Oeste 0 -- -- 68
2019-06-19 10:00:00 18.1 8 Oeste 14 Oeste 0 -- -- 79
2019-06-19 09:00:00 17.3 9 Oeste 15 Oeste 0 -- -- 82
2019-06-19 08:00:00 16.9 10 Oeste 15 Oeste 0 -- -- 86
2019-06-19 07:00:00 17.1 8 Oeste 13 Sudoeste 0 -- -- 85
2019-06-19 06:00:00 17 4 Sudoeste 12 Sudoeste 0 -- -- 85
2019-06-19 05:00:00 16.6 7 Sudoeste 18 Sudoeste 0 -- -- 88
2019-06-19 04:00:00 16.4 8 Sudoeste 16 Sudoeste 0 -- -- 87
2019-06-19 03:00:00 16.4 7 Sudoeste 16 Sudoeste 0 -- -- 85
2019-06-19 02:00:00 17.1 9 Sudoeste 16 Sudoeste 0 -- -- 82
2019-06-19 01:00:00 18.2 8 Sudoeste 22 Sudoeste 0 -- -- 77
2019-06-19 00:00:00 19.4 6 Sur 23 Sudoeste 0 -- -- 72
2019-06-18 23:00:00 20.4 10 Sudoeste 28 Sudoeste 0 -- -- 67
2019-06-18 22:00:00 21.9 17 Sudoeste 27 Oeste 0 -- -- 59
2019-06-18 21:00:00 24.2 19 Oeste 36 Oeste 0 -- -- 51
2019-06-18 20:00:00 26.3 23 Oeste 34 Oeste 0 -- -- 40
2019-06-18 19:00:00 27.5 22 Oeste 34 Oeste 0 -- -- 35
2019-06-18 18:00:00 28.1 22 Oeste 35 Oeste 0 -- -- 31
2019-06-18 17:00:00 28.2 19 Oeste 33 Oeste 0 -- -- 30
2019-06-18 16:00:00 27.6 21 Oeste 37 Oeste 0 -- -- 34
2019-06-18 15:00:00 26.6 16 Oeste 27 Sudoeste 0 -- -- 42
2019-06-18 14:00:00 25.1 13 Oeste 22 Oeste 0 -- -- 46
2019-06-18 13:00:00 23.5 13 Oeste 23 Oeste 0 -- -- 53
2019-06-18 12:00:00 21.6 12 Oeste 26 Oeste 0 -- -- 57
2019-06-18 11:00:00 19.9 13 Oeste 22 Oeste 0 -- -- 63
2019-06-18 10:00:00 17.7 10 Oeste 17 Oeste 0 -- -- 71
2019-06-18 09:00:00 16.4 9 Oeste 15 Oeste 0 -- -- 77
2019-06-18 08:00:00 14.8 5 Sudoeste 8 Sudoeste 0 -- -- 83
2019-06-18 07:00:00 13.1 3 Oeste 6 Oeste 0 -- -- 79
2019-06-18 06:00:00 13.2 0 Calma 7 Sudeste 0 -- -- 72
2019-06-18 05:00:00 14.2 5 Sudeste 8 Sudeste 0 -- -- 72
2019-06-18 04:00:00 15.3 6 Sudeste 8 Este 0 -- -- 69
2019-06-18 03:00:00 16.8 0 Calma 6 Noroeste 0 -- -- 66
2019-06-18 02:00:00 18 4 Oeste 12 Oeste 0 -- -- 66
2019-06-18 01:00:00 19.5 7 Sudoeste 13 Sudoeste 0 -- -- 62
2019-06-18 00:00:00 20.8 6 Sudoeste 14 Sudoeste 0 -- -- 57
2019-06-17 23:00:00 22.7 10 Oeste 21 Sudoeste 0 -- -- 54
2019-06-17 22:00:00 24.7 14 Sudoeste 31 Sudoeste 0 -- -- 48
2019-06-17 21:00:00 28.1 20 Sudoeste 35 Sudoeste 0 -- -- 36
2019-06-17 20:00:00 30.9 17 Oeste 28 Oeste 0 -- -- 26
2019-06-17 19:00:00 32.4 13 Oeste 22 Oeste 0 -- -- 23
2019-06-17 18:00:00 32.9 10 Oeste 25 Sur 0 -- -- 21
2019-06-17 17:00:00 32.6 15 Sur 28 Sur 0 -- -- 19
2019-06-17 16:00:00 32.3 16 Sudoeste 27 Sur 0 -- -- 22
2019-06-17 15:00:00 30.6 8 Sur 23 Sur 0 -- -- 24
2019-06-17 14:00:00 29.3 10 Oeste 22 Oeste 0 -- -- 25
2019-06-17 13:00:00 27.5 5 Sur 17 Sudoeste 0 -- -- 27
2019-06-17 12:00:00 25.3 7 Noroeste 12 Oeste 0 -- -- 38
2019-06-17 11:00:00 23.9 5 Noroeste 12 Norte 0 -- -- 38
2019-06-17 10:00:00 22.3 3 Noroeste 6 Oeste 0 -- -- 43
2019-06-17 09:00:00 20.5 2 Norte 4 Norte 0 -- -- 47
2019-06-17 08:00:00 16.7 3 Este 11 Este 0 -- -- 56
2019-06-17 07:00:00 12.6 6 Este 11 Sudeste 0 -- -- 63
2019-06-17 06:00:00 11.9 4 Sudeste 9 Sudeste 0 -- -- 66
2019-06-17 05:00:00 12.9 3 Sudeste 9 Este 0 -- -- 59
2019-06-17 04:00:00 13.4 6 Sudeste 8 Este 0 -- -- 56
2019-06-17 03:00:00 14.5 5 Sudeste 8 Este 0 -- -- 55
2019-06-17 02:00:00 17.3 2 Sur 10 Sudoeste 0 -- -- 50
2019-06-17 01:00:00 19.5 7 Sur 14 Sur 0 -- -- 47
2019-06-17 00:00:00 20.9 9 Sur 19 Sudoeste 0 -- -- 47
2019-06-16 23:00:00 22.2 9 Sudoeste 22 Sudoeste 0 -- -- 45
2019-06-16 22:00:00 24.3 14 Sudoeste 26 Sudoeste 0 -- -- 43
2019-06-16 21:00:00 27.4 14 Sur 28 Sur 0 -- -- 26
2019-06-16 20:00:00 29.5 16 Sur 27 Sur 0 -- -- 22
2019-06-16 19:00:00 30.7 14 Sur 23 Sudoeste 0 -- -- 20
2019-06-16 18:00:00 30.8 13 Sur 27 Sur 0 -- -- 17
2019-06-16 17:00:00 31 14 Sur 29 Sur 0 -- -- 18
2019-06-16 16:00:00 30.2 15 Sudoeste 33 Sudoeste 0 -- -- 22
2019-06-16 15:00:00 29 16 Sur 26 Sur 0 -- -- 24
2019-06-16 14:00:00 28.2 11 Sudoeste 24 Sudoeste 0 -- -- 27
2019-06-16 13:00:00 26.6 5 Sudoeste 11 Oeste 0 -- -- 30
2019-06-16 12:00:00 25.8 7 Sur 13 Sudeste 0 -- -- 29
2019-06-16 11:00:00 24.9 5 Sur 13 Sur 0 -- -- 32
2019-06-16 10:00:00 21.8 6 Sudeste 14 Este 0 -- -- 38
2019-06-16 09:00:00 17.7 6 Este 16 Sudeste 0 -- -- 46
2019-06-16 08:00:00 15.3 12 Sudeste 15 Sudeste 0 -- -- 51
2019-06-16 07:00:00 12.3 3 Sudeste 13 Sudeste 0 -- -- 64
2019-06-16 06:00:00 11.3 3 Este 9 Este 0 -- -- 65
2019-06-16 05:00:00 11.9 0 Calma 8 Este 0 -- -- 67
2019-06-16 04:00:00 13.2 7 Este 9 Sudeste 0 -- -- 63
2019-06-16 03:00:00 15 5 Sudeste 12 Sudeste 0 -- -- 61
2019-06-16 02:00:00 16.3 0 Calma 5 Sur 0 -- -- 54
2019-06-16 01:00:00 18.2 2 Sudoeste 15 Oeste 0 -- -- 50
2019-06-16 00:00:00 18.6 4 Sudeste 14 Sudoeste 0 -- -- 40
2019-06-15 23:00:00 19.4 4 Sur 6 Sudeste 0 -- -- 36
2019-06-15 22:00:00 23 0 Calma 10 Oeste 0 -- -- 31
2019-06-15 21:00:00 27.4 7 Oeste 15 Oeste 0 -- -- 25
2019-06-15 20:00:00 28 11 Oeste 20 Oeste 0 -- -- 24
2019-06-15 19:00:00 28.5 9 Oeste 21 Oeste 0 -- -- 22
2019-06-15 18:00:00 28.8 7 Oeste 20 Noroeste 0 -- -- 26
2019-06-15 17:00:00 27.6 5 Norte 20 Noroeste 0 -- -- 26
2019-06-15 16:00:00 26.6 9 Noroeste 18 Noroeste 0 -- -- 28
2019-06-15 15:00:00 26.2 10 Norte 24 Oeste 0 -- -- 30
2019-06-15 14:00:00 24.4 9 Noroeste 19 Noroeste 0 -- -- 33
2019-06-15 13:00:00 23.7 7 Norte 23 Norte 0 -- -- 36
2019-06-15 12:00:00 22.1 10 Norte 24 Norte 0 -- -- 39
2019-06-15 11:00:00 20.3 13 Norte 25 Norte 0 -- -- 46
2019-06-15 10:00:00 18.3 10 Norte 18 Nordeste 0 -- -- 53
2019-06-15 09:00:00 16.4 0 Calma 4 Norte 0 -- -- 63
2019-06-15 08:00:00 13.3 4 Sudeste 7 Sudeste 0 -- -- 68
2019-06-15 07:00:00 9.2 4 Este 8 Este 0 -- -- 80
2019-06-15 06:00:00 10.5 5 Este 11 Sudeste 0 -- -- 76
2019-06-15 05:00:00 10 6 Sudeste 9 Sudeste 0 -- -- 76
2019-06-15 04:00:00 11.4 6 Sudeste 9 Sudeste 0 -- -- 71
2019-06-15 03:00:00 12.4 6 Sudeste 9 Sudeste 0 -- -- 69
2019-06-15 02:00:00 13.6 3 Sur 15 Sudoeste 0 -- -- 65
2019-06-15 01:00:00 14.6 8 Sudoeste 25 Sudoeste 0 -- -- 62
2019-06-15 00:00:00 16 15 Sudoeste 27 Sudoeste 0 -- -- 58
2019-06-14 23:00:00 17.2 15 Oeste 30 Sudoeste 0 -- -- 55
2019-06-14 22:00:00 18.5 16 Sudoeste 33 Oeste 0 -- -- 51
2019-06-14 21:00:00 20 20 Sudoeste 33 Sudoeste 0 -- -- 44
2019-06-14 20:00:00 22.5 19 Sudoeste 33 Sudoeste 0 -- -- 40
2019-06-14 19:00:00 23.1 15 Sudoeste 36 Sudoeste 0 -- -- 36
2019-06-14 18:00:00 23.1 20 Oeste 38 Sudoeste 0 -- -- 34
2019-06-14 17:00:00 23.3 23 Sudoeste 49 Sudoeste 0 -- -- 33
2019-06-14 16:00:00 22.9 26 Oeste 45 Sudoeste 0 -- -- 36
2019-06-14 15:00:00 22.6 22 Sudoeste 41 Oeste 0 -- -- 40
2019-06-14 14:00:00 22.3 23 Sudoeste 46 Oeste 0 -- -- 42
2019-06-14 13:00:00 21.9 25 Sudoeste 43 Sudoeste 0 -- -- 40
2019-06-14 12:00:00 21 26 Sudoeste 41 Sudoeste 0 -- -- 46
2019-06-14 11:00:00 20.2 17 Sudoeste 29 Sudoeste 0 -- -- 48
2019-06-14 10:00:00 18.1 11 Sudoeste 23 Sudoeste 0 -- -- 63
2019-06-14 09:00:00 16.3 15 Oeste 23 Oeste 0 -- -- 74
2019-06-14 08:00:00 15.5 11 Oeste 17 Oeste 0 -- -- 72
2019-06-14 07:00:00 15.5 6 Oeste 14 Sur 0 -- -- 71
2019-06-14 06:00:00 17.3 8 Sudoeste 22 Sudoeste 0 -- -- 67
2019-06-14 05:00:00 17.9 10 Oeste 16 Sudoeste 0 -- -- 58
2019-06-14 04:00:00 18.2 7 Oeste 11 Oeste 0 -- -- 56
2019-06-14 03:00:00 19.1 7 Sudoeste 24 Sudoeste 0 -- -- 53
2019-06-14 02:00:00 19.8 13 Sudoeste 32 Sudoeste 0 -- -- 52
2019-06-14 01:00:00 20.3 16 Sudoeste 32 Sudoeste 0 -- -- 54
2019-06-14 00:00:00 20.7 15 Sudoeste 29 Sudoeste 0 -- -- 54
2019-06-13 23:00:00 21.4 18 Sudoeste 32 Sudoeste 0 -- -- 51
2019-06-13 22:00:00 23.6 22 Oeste 33 Sudoeste 0 -- -- 43
2019-06-13 21:00:00 25 20 Oeste 38 Oeste 0 -- -- 41
2019-06-13 20:00:00 26.8 18 Oeste 32 Oeste 0 -- -- 41
2019-06-13 19:00:00 28.4 13 Oeste 31 Oeste 0 -- -- 38
2019-06-13 18:00:00 27.9 15 Oeste 27 Sudoeste 0 -- -- 40
2019-06-13 17:00:00 28.4 11 Sudoeste 28 Sudoeste 0 -- -- 39
2019-06-13 16:00:00 28 15 Sur 37 Sudoeste 0 -- -- 38
2019-06-13 15:00:00 27.3 14 Sudoeste 29 Sudoeste 0 -- -- 40
2019-06-13 14:00:00 26.4 8 Sur 21 Sudoeste 0 -- -- 42
2019-06-13 13:00:00 25.1 7 Sudoeste 21 Sur 0 -- -- 43
2019-06-13 12:00:00 24.3 6 Sudeste 16 Sudeste 0 -- -- 47
2019-06-13 11:00:00 22.7 4 Sudoeste 11 Sudoeste 0 -- -- 53
2019-06-13 10:00:00 21 4 Sudoeste 13 Sudeste 0 -- -- 59
2019-06-13 09:00:00 19.4 11 Sudeste 17 Sudeste 0 -- -- 66
2019-06-13 08:00:00 16.3 8 Este 11 Sudeste 0 -- -- 75
2019-06-13 07:00:00 14.5 0 Calma 9 Sudeste 0 -- -- 82
2019-06-13 06:00:00 15 10 Sudeste 14 Sudeste 0 -- -- 81
2019-06-13 05:00:00 15.1 2 Sudoeste 14 Sur 0 -- -- 79
2019-06-13 04:00:00 16.4 10 Sur 22 Sur 0 -- -- 75
2019-06-13 03:00:00 16.9 13 Sur 22 Sur 0 -- -- 72
2019-06-13 02:00:00 17.4 11 Sur 24 Sur 0 -- -- 68
2019-06-13 01:00:00 18.4 15 Sur 26 Sur 0 -- -- 63
2019-06-13 00:00:00 19.6 13 Sur 23 Sur 0 -- -- 57
2019-06-12 23:00:00 20.9 13 Sur 19 Sudeste 0 -- -- 52
2019-06-12 22:00:00 22.5 10 Sudeste 18 Sudeste 0 -- -- 46
2019-06-12 21:00:00 25.6 12 Sudeste 18 Sudeste 0 -- -- 37
2019-06-12 20:00:00 27 11 Sur 23 Sur 0 -- -- 31
2019-06-12 19:00:00 27.8 13 Sur 25 Sur 0 -- -- 28
2019-06-12 18:00:00 28.1 14 Sur 31 Sur 0 -- -- 32
2019-06-12 17:00:00 28.7 12 Sur 24 Sudoeste 0 -- -- 31
2019-06-12 16:00:00 27.7 9 Sur 25 Sudoeste 0 -- -- 34
2019-06-12 15:00:00 27 15 Sur 32 Sudoeste 0 -- -- 35
2019-06-12 14:00:00 26.1 17 Sur 28 Sudoeste 0 -- -- 38
2019-06-12 13:00:00 25.2 14 Sur 26 Sudoeste 0 -- -- 42
2019-06-12 12:00:00 24 11 Sudoeste 26 Sudeste 0 -- -- 49
2019-06-12 11:00:00 23 10 Sur 22 Sur 0 -- -- 54
2019-06-12 10:00:00 21.6 8 Sudeste 22 Sur 0 -- -- 59
2019-06-12 09:00:00 18.8 13 Sudeste 23 Sur 0 -- -- 67
2019-06-12 08:00:00 16.2 8 Sudeste 14 Este 0 -- -- 70
2019-06-12 07:00:00 13.8 12 Sudeste 18 Sudeste 0 -- -- 78
2019-06-12 06:00:00 13 5 Sudeste 14 Sudeste 0 -- -- 79
2019-06-12 05:00:00 13.3 9 Sudeste 13 Sudeste 0 -- -- 82
2019-06-12 04:00:00 13.8 0 Calma 4 Este 0 -- -- 76
2019-06-12 03:00:00 15.2 2 Nordeste 5 Noroeste 0 -- -- 73
2019-06-12 02:00:00 16.5 0 Calma 12 Oeste 0 -- -- 69
2019-06-12 01:00:00 17.4 5 Norte 16 Noroeste 0 -- -- 65
2019-06-12 00:00:00 18.8 10 Oeste 26 Sudoeste 0 -- -- 62
2019-06-11 23:00:00 20.6 15 Oeste 26 Oeste 0 -- -- 55
2019-06-11 22:00:00 22.8 13 Oeste 23 Oeste 0 -- -- 40
2019-06-11 21:00:00 26.3 15 Noroeste 28 Oeste 0 -- -- 25
2019-06-11 20:00:00 27.7 15 Oeste 33 Oeste 0 -- -- 26
2019-06-11 19:00:00 28.3 19 Oeste 35 Noroeste 0 -- -- 26
2019-06-11 18:00:00 28.2 23 Oeste 36 Oeste 0 -- -- 30
2019-06-11 17:00:00 27.9 18 Oeste 37 Oeste 0 -- -- 31
2019-06-11 16:00:00 27.1 13 Oeste 38 Oeste 0 -- -- 33
2019-06-11 15:00:00 26.2 12 Oeste 27 Oeste 0 -- -- 34
2019-06-11 14:00:00 24.8 16 Oeste 24 Oeste 0 -- -- 35
2019-06-11 13:00:00 23 13 Oeste 27 Oeste 0 -- -- 35
2019-06-11 12:00:00 22 16 Oeste 26 Oeste 0 -- -- 44
2019-06-11 11:00:00 20.2 7 Oeste 14 Oeste 0 -- -- 52
2019-06-11 10:00:00 18.1 8 Oeste 19 Oeste 0 -- -- 64
2019-06-11 09:00:00 17 13 Oeste 19 Oeste 0 -- -- 66
2019-06-11 08:00:00 15.9 2 Este 13 Sudeste 0 -- -- 67
2019-06-11 07:00:00 12.6 6 Sudeste 12 Sudeste 0 -- -- 77
2019-06-11 06:00:00 11.7 4 Sudeste 9 Sudeste 0 -- -- 79
2019-06-11 05:00:00 11.8 8 Sudeste 10 Sudeste 0 -- -- 79
2019-06-11 04:00:00 12.1 0 Calma 5 Sudeste 0 -- -- 76
2019-06-11 03:00:00 13.2 4 Este 7 Sudeste 0 -- -- 75
2019-06-11 02:00:00 14.9 5 Sudeste 13 Oeste 0 -- -- 71
2019-06-11 01:00:00 16 5 Sudoeste 16 Sudoeste 0 -- -- 68
2019-06-11 00:00:00 17.4 9 Oeste 26 Oeste 0 -- -- 64
2019-06-10 23:00:00 18.9 19 Oeste 36 Oeste 0 -- -- 57
2019-06-10 22:00:00 20.8 21 Oeste 41 Sudoeste 0 -- -- 48
2019-06-10 21:00:00 23.7 27 Oeste 41 Sudoeste 0 -- -- 40
2019-06-10 20:00:00 27.5 19 Oeste 35 Oeste 0 -- -- 30
2019-06-10 19:00:00 28.1 14 Sudoeste 28 Sudoeste 0 -- -- 26
2019-06-10 18:00:00 28.2 17 Oeste 27 Oeste 0 -- -- 26
2019-06-10 17:00:00 27.7 13 Oeste 29 Oeste 0 -- -- 28
2019-06-10 16:00:00 26.8 15 Oeste 28 Oeste 0 -- -- 27
2019-06-10 15:00:00 25.9 14 Oeste 32 Oeste 0 -- -- 29
2019-06-10 14:00:00 24.9 11 Oeste 28 Oeste 0 -- -- 32
2019-06-10 13:00:00 23.8 12 Oeste 31 Oeste 0 -- -- 34
2019-06-10 12:00:00 22.6 11 Oeste 19 Oeste 0 -- -- 42
2019-06-10 11:00:00 20.8 13 Oeste 20 Oeste 0 -- -- 48
2019-06-10 10:00:00 18.7 6 Oeste 12 Oeste 0 -- -- 55
2019-06-10 09:00:00 16.8 8 Oeste 13 Oeste 0 -- -- 62
2019-06-10 08:00:00 15.2 0 Calma 10 Sudeste 0 -- -- 64
2019-06-10 07:00:00 10.7 7 Sudeste 10 Sudeste 0 -- -- 77
2019-06-10 06:00:00 11.3 8 Sudeste 10 Sudeste 0 -- -- 72
2019-06-10 05:00:00 12.6 3 Sudeste 6 Este 0 -- -- 69
2019-06-10 04:00:00 13.2 2 Sur 4 Sudeste 0 -- -- 65
2019-06-10 03:00:00 14.8 0 Calma 9 Oeste 0 -- -- 60
2019-06-10 02:00:00 16 5 Sudoeste 9 Sudoeste 0 -- -- 56
2019-06-10 01:00:00 17.1 7 Sudoeste 15 Sudoeste 0 -- -- 50
2019-06-10 00:00:00 18.4 10 Sudoeste 22 Sudoeste 0 -- -- 47
2019-06-09 23:00:00 19.6 12 Sudoeste 33 Sudoeste 0 -- -- 40
2019-06-09 22:00:00 21.6 19 Sudoeste 48 Sudoeste 0 -- -- 35
2019-06-09 21:00:00 24.4 22 Oeste 38 Sudoeste 0 -- -- 29
2019-06-09 20:00:00 26.8 17 Sudoeste 30 Sudoeste 0 -- -- 26
2019-06-09 19:00:00 27.6 16 Oeste 33 Oeste 0 -- -- 29
2019-06-09 18:00:00 28.2 15 Sudoeste 31 Oeste 0 -- -- 30
2019-06-09 17:00:00 27.6 22 Oeste 35 Oeste 0 -- -- 30
2019-06-09 16:00:00 27.1 14 Oeste 33 Sudoeste 0 -- -- 35
2019-06-09 15:00:00 26.7 19 Oeste 30 Sudoeste 0 -- -- 41
2019-06-09 14:00:00 25.9 13 Sudoeste 29 Sudoeste 0 -- -- 44
2019-06-09 13:00:00 24.6 13 Oeste 23 Oeste 0 -- -- 49
2019-06-09 12:00:00 23.8 9 Oeste 17 Oeste 0 -- -- 55
2019-06-09 11:00:00 22.4 8 Oeste 14 Oeste 0 -- -- 61
2019-06-09 10:00:00 19.9 5 Oeste 9 Oeste 0 -- -- 70
2019-06-09 09:00:00 17.7 2 Noroeste 4 Norte 0 -- -- 76
2019-06-09 08:00:00 15.6 0 Calma 4 Este 0 -- -- 74
2019-06-09 07:00:00 16.1 4 Sudeste 7 Sudoeste 0 -- -- 72
2019-06-09 06:00:00 16.8 4 Sur 9 Sudoeste 0 -- -- 68
2019-06-09 05:00:00 17 0 Calma 9 Oeste 0 -- -- 65
2019-06-09 04:00:00 17.3 5 Oeste 12 Sudoeste 0 -- -- 61
2019-06-09 03:00:00 18.3 8 Sudoeste 13 Sur 0 -- -- 57
2019-06-09 02:00:00 19.6 5 Sur 14 Sudoeste 0 -- -- 60
2019-06-09 01:00:00 20.6 9 Sudoeste 17 Sur 0 -- -- 53
2019-06-09 00:00:00 21.2 9 Sur 21 Sur 0 -- -- 49
2019-06-08 23:00:00 21.7 14 Sur 27 Sur 0 -- -- 48
2019-06-08 22:00:00 22.7 15 Sur 29 Sur 0 -- -- 47
2019-06-08 21:00:00 24.2 18 Sur 31 Sur 0 -- -- 42
2019-06-08 20:00:00 25.1 21 Sur 33 Sur 0 -- -- 38
2019-06-08 19:00:00 26.3 17 Sur 36 Sur 0 -- -- 36
2019-06-08 18:00:00 28.3 21 Sur 37 Sur 0 -- -- 29
2019-06-08 17:00:00 29.7 17 Sur 35 Sur 0 -- -- 29
2019-06-08 16:00:00 30.3 21 Sudoeste 36 Sur 0 -- -- 27
2019-06-08 15:00:00 29.6 18 Sur 37 Sudoeste 0 -- -- 29
2019-06-08 14:00:00 29.8 16 Sudoeste 38 Sudoeste 0 -- -- 32
2019-06-08 13:00:00 27.7 9 Sudoeste 17 Sudeste 0 -- -- 32
2019-06-08 12:00:00 26.2 8 Sur 15 Sudoeste 0 -- -- 30
2019-06-08 11:00:00 23.7 7 Sudoeste 14 Sudoeste 0 -- -- 32
2019-06-08 10:00:00 22.6 6 Sudeste 14 Sur 0 -- -- 28
2019-06-08 09:00:00 19.6 10 Este 15 Este 0 -- -- 35
2019-06-08 08:00:00 14.9 10 Sudeste 15 Sudeste 0 -- -- 41
2019-06-08 07:00:00 10.5 4 Sudeste 8 Sudeste 0 -- -- 50
2019-06-08 06:00:00 12.9 0 Calma 3 Sudoeste 0 -- -- 52
2019-06-08 05:00:00 14.8 0 Calma 9 Norte 0 -- -- 43
2019-06-08 04:00:00 16.3 7 Norte 14 Norte 0 -- -- 34
2019-06-08 03:00:00 15.8 6 Norte 11 Nordeste 0 -- -- 32
2019-06-08 02:00:00 14.2 5 Nordeste 8 Nordeste 0 -- -- 36
2019-06-08 01:00:00 14.2 4 Este 7 Este 0 -- -- 39
2019-06-08 00:00:00 15.2 3 Este 9 Este 0 -- -- 40
2019-06-07 23:00:00 16.2 0 Calma 6 Este 0 -- -- 42
2019-06-07 22:00:00 21 0 Calma 10 Oeste 0 -- -- 33
2019-06-07 21:00:00 24.8 9 Noroeste 16 Oeste 0 -- -- 27
2019-06-07 20:00:00 25.9 13 Noroeste 19 Noroeste 0 -- -- 24
2019-06-07 19:00:00 26 10 Oeste 23 Oeste 0 -- -- 22
2019-06-07 18:00:00 26.2 10 Oeste 18 Oeste 0 -- -- 25
2019-06-07 17:00:00 25.4 7 Noroeste 22 Oeste 0 -- -- 28
2019-06-07 16:00:00 24.3 5 Sudoeste 21 Oeste 0 -- -- 35
2019-06-07 15:00:00 23.2 10 Sudoeste 24 Oeste 0 -- -- 40
2019-06-07 14:00:00 21.1 8 Noroeste 19 Noroeste 0 -- -- 49
2019-06-07 13:00:00 19.6 7 Nordeste 17 Nordeste 0 -- -- 59
2019-06-07 12:00:00 18.9 5 Norte 18 Norte 0 -- -- 62
2019-06-07 11:00:00 16.4 8 Nordeste 19 Nordeste 0 -- -- 73
2019-06-07 10:00:00 14.4 10 Noroeste 24 Noroeste 0 -- -- 83
2019-06-07 09:00:00 14.9 4 Oeste 11 Sudoeste 0.2 -- -- 92
2019-06-07 08:00:00 14.7 8 Sudoeste 19 Oeste 0 -- -- 90
2019-06-07 07:00:00 15.4 9 Sudoeste 19 Sudoeste 0 -- -- 79
2019-06-07 06:00:00 15 9 Sudoeste 21 Sudoeste 0 -- -- 78
2019-06-07 05:00:00 14.7 11 Sudoeste 26 Sudoeste 0 -- -- 78
2019-06-07 04:00:00 14.5 7 Sudoeste 18 Sudoeste 0 -- -- 76
2019-06-07 03:00:00 14.5 7 Sur 14 Sur 0 -- -- 72
2019-06-07 02:00:00 15.1 7 Sur 28 Sudoeste 0 -- -- 66
2019-06-07 01:00:00 15.7 18 Sudoeste 29 Sudoeste 0 -- -- 62
2019-06-07 00:00:00 16.3 17 Sudoeste 34 Oeste 0 -- -- 60
2019-06-06 23:00:00 17.1 19 Oeste 31 Sudoeste 0 -- -- 53
2019-06-06 22:00:00 18.5 17 Sudoeste 35 Oeste 0 -- -- 38
2019-06-06 21:00:00 21.4 24 Oeste 40 Oeste 0 -- -- 28
2019-06-06 20:00:00 23.7 24 Sudoeste 42 Oeste 0 -- -- 26
2019-06-06 19:00:00 25.5 26 Oeste 42 Oeste 0 -- -- 28
2019-06-06 18:00:00 27 21 Oeste 36 Oeste 0 -- -- 25
2019-06-06 17:00:00 27.2 18 Oeste 32 Oeste 0 -- -- 24
2019-06-06 16:00:00 26.8 16 Oeste 29 Oeste 0 -- -- 26
2019-06-06 15:00:00 25.8 15 Oeste 29 Sudoeste 0 -- -- 30
2019-06-06 14:00:00 25.2 12 Oeste 24 Sudoeste 0 -- -- 27
2019-06-06 13:00:00 23.9 5 Sudeste 14 Nordeste 0 -- -- 33
2019-06-06 12:00:00 22 8 Noroeste 12 Noroeste 0 -- -- 38
2019-06-06 11:00:00 20.9 5 Este 12 Este 0 -- -- 43
2019-06-06 10:00:00 19.2 4 Este 12 Este 0 -- -- 47
2019-06-06 09:00:00 17 8 Este 11 Este 0 -- -- 56
2019-06-06 08:00:00 12.2 0 Calma 9 Sudeste 0 -- -- 72
2019-06-06 07:00:00 9.1 2 Sudeste 5 Sudoeste 0 -- -- 79
2019-06-06 06:00:00 10.2 4 Sudeste 7 Este 0 -- -- 74
2019-06-06 05:00:00 11.5 0 Calma 7 Sur 0 -- -- 71
2019-06-06 04:00:00 12.8 3 Sur 8 Este 0 -- -- 67
2019-06-06 03:00:00 13.9 2 Sur 9 Sudeste 0 -- -- 63
2019-06-06 02:00:00 15 3 Oeste 15 Oeste 0 -- -- 62
2019-06-06 01:00:00 16.1 7 Oeste 17 Sudoeste 0 -- -- 64
2019-06-06 00:00:00 17.1 9 Sudoeste 22 Sudoeste 0 -- -- 58
2019-06-05 23:00:00 17.1 4 Sudeste 18 Norte 0 -- -- 38
2019-06-05 22:00:00 19.3 8 Noroeste 19 Oeste 0 -- -- 36
2019-06-05 21:00:00 22.6 11 Oeste 23 Oeste 0 -- -- 30
2019-06-05 20:00:00 24.1 13 Oeste 28 Oeste 0 -- -- 27
2019-06-05 19:00:00 23.6 14 Oeste 25 Noroeste 0 -- -- 28
2019-06-05 18:00:00 24.5 16 Oeste 27 Noroeste 0 -- -- 26
2019-06-05 17:00:00 24.5 14 Noroeste 36 Oeste 0 -- -- 29
2019-06-05 16:00:00 23.1 12 Oeste 32 Noroeste 0 -- -- 31
2019-06-05 15:00:00 21.8 13 Oeste 33 Oeste 0 -- -- 36
2019-06-05 14:00:00 21.4 16 Oeste 32 Oeste 0 -- -- 38
2019-06-05 13:00:00 19.9 15 Oeste 32 Noroeste 0 -- -- 42
2019-06-05 12:00:00 18.7 13 Oeste 27 Oeste 0 -- -- 45
2019-06-05 11:00:00 17.6 12 Oeste 24 Sudoeste 0 -- -- 48
2019-06-05 10:00:00 16.2 12 Oeste 23 Oeste 0 -- -- 53
2019-06-05 09:00:00 15.1 15 Oeste 22 Oeste 0 -- -- 58
2019-06-05 08:00:00 13.9 8 Oeste 15 Oeste 0 -- -- 57
2019-06-05 07:00:00 13.9 10 Oeste 20 Noroeste 0 -- -- 56
2019-06-05 06:00:00 15 10 Noroeste 27 Noroeste 0 -- -- 53
2019-06-05 05:00:00 16.7 15 Oeste 39 Oeste 0 -- -- 54
2019-06-05 04:00:00 18.2 17 Oeste 30 Sudoeste 0 -- -- 64
2019-06-05 03:00:00 18.4 13 Sudoeste 31 Sudoeste 0 -- -- 71
2019-06-05 02:00:00 18.8 19 Sudoeste 32 Sudoeste 0 -- -- 71
2019-06-05 01:00:00 19.5 18 Sudoeste 30 Sudoeste 0 -- -- 69
2019-06-05 00:00:00 19.8 13 Sudoeste 35 Sudoeste 0 -- -- 67
2019-06-04 23:00:00 21.1 18 Sudoeste 31 Sudoeste 0 -- -- 63
2019-06-04 22:00:00 22.6 19 Sudoeste 40 Sudoeste 0 -- -- 50
2019-06-04 21:00:00 25.2 23 Sudoeste 39 Sudoeste 0 -- -- 46
2019-06-04 20:00:00 27.5 24 Sudoeste 45 Oeste 0 -- -- 37
2019-06-04 19:00:00 28.7 31 Oeste 43 Oeste 0 -- -- 36
2019-06-04 18:00:00 30.4 24 Oeste 37 Oeste 0 -- -- 33
2019-06-04 17:00:00 30.8 21 Oeste 40 Sudoeste 0 -- -- 32
2019-06-04 16:00:00 30.3 23 Oeste 39 Oeste 0 -- -- 32
2019-06-04 15:00:00 30.1 18 Sudoeste 38 Oeste 0 -- -- 31
2019-06-04 14:00:00 29.1 17 Sudoeste 29 Oeste 0 -- -- 36
2019-06-04 13:00:00 27.6 15 Sudoeste 27 Sudoeste 0 -- -- 38
2019-06-04 12:00:00 26.2 15 Oeste 25 Oeste 0 -- -- 34
2019-06-04 11:00:00 25.4 13 Oeste 18 Oeste 0 -- -- 33
2019-06-04 10:00:00 23.8 7 Sur 12 Sur 0 -- -- 32
2019-06-04 09:00:00 21.9 7 Sudeste 14 Sudeste 0 -- -- 36
2019-06-04 08:00:00 18.4 0 Calma 9 Sudeste 0 -- -- 47
2019-06-04 07:00:00 16.1 3 Este 18 Sudeste 0 -- -- 49
2019-06-04 06:00:00 17 6 Sudeste 17 Sudeste 0 -- -- 51
2019-06-04 05:00:00 16.5 8 Sudeste 15 Sudeste 0 -- -- 53
2019-06-04 04:00:00 17.5 3 Este 17 Sudeste 0 -- -- 53
2019-06-04 03:00:00 18.3 9 Sudeste 15 Sudeste 0 -- -- 53
2019-06-04 02:00:00 19 5 Sudeste 12 Sudoeste 0 -- -- 49
2019-06-04 01:00:00 20.9 8 Sudoeste 17 Sudoeste 0 -- -- 45
2019-06-04 00:00:00 23.3 11 Oeste 20 Sudoeste 0 -- -- 40
2019-06-03 23:00:00 25.5 9 Sudoeste 19 Sudoeste 0 -- -- 33
2019-06-03 22:00:00 27.5 11 Sur 16 Sur 0 -- -- 25
2019-06-03 21:00:00 31.2 10 Sur 20 Sur 0 -- -- 19
2019-06-03 20:00:00 33.8 13 Sudoeste 19 Sudoeste 0 -- -- 18
2019-06-03 19:00:00 35.2 13 Sur 17 Sudoeste 0 -- -- 13
2019-06-03 18:00:00 35.7 10 Sudoeste 15 Sur 0 -- -- 14
2019-06-03 17:00:00 35.6 11 Sudoeste 15 Sudoeste 0 -- -- 15
2019-06-03 16:00:00 34.9 8 Sudoeste 17 Sudoeste 0 -- -- 16
2019-06-03 15:00:00 34.2 8 Sudoeste 17 Sudeste 0 -- -- 19
2019-06-03 14:00:00 33.1 7 Noroeste 12 Oeste 0 -- -- 22
2019-06-03 13:00:00 30.2 4 Noroeste 10 Noroeste 0 -- -- 23
2019-06-03 12:00:00 29.6 6 Noroeste 10 Sur 0 -- -- 26
2019-06-03 11:00:00 27.9 4 Sur 11 Sudeste 0 -- -- 26
2019-06-03 10:00:00 23.9 5 Noroeste 9 Sudeste 0 -- -- 34
2019-06-03 09:00:00 22.9 3 Nordeste 17 Sudeste 0 -- -- 37
2019-06-03 08:00:00 20.2 13 Sudeste 24 Sudeste 0 -- -- 34
2019-06-03 07:00:00 17.8 19 Sudeste 25 Sudeste 0 -- -- 36
2019-06-03 06:00:00 18.1 18 Sudeste 25 Sudeste 0 -- -- 35
2019-06-03 05:00:00 18 21 Sudeste 27 Sudeste 0 -- -- 36
2019-06-03 04:00:00 17.9 13 Sudeste 17 Sudeste 0 -- -- 35
2019-06-03 03:00:00 19.1 10 Sudeste 21 Sur 0 -- -- 33
2019-06-03 02:00:00 20.9 16 Sur 23 Sur 0 -- -- 31
2019-06-03 01:00:00 20 12 Sudeste 31 Sudeste 0 -- -- 34
2019-06-03 00:00:00 22.1 19 Sudeste 32 Sudeste 0 -- -- 29
2019-06-02 23:00:00 23 19 Sudeste 30 Sudeste 0 -- -- 29
2019-06-02 22:00:00 25.4 18 Sudeste 30 Sudeste 0 -- -- 24
2019-06-02 21:00:00 29.1 15 Sur 22 Sur 0 -- -- 21
2019-06-02 20:00:00 31.4 16 Sur 24 Sur 0 -- -- 19
2019-06-02 19:00:00 33.2 14 Sur 20 Sur 0 -- -- 19
2019-06-02 18:00:00 34.2 10 Sur 15 Sur 0 -- -- 18
2019-06-02 17:00:00 33.9 8 Oeste 18 Sudoeste 0 -- -- 19
2019-06-02 16:00:00 33.2 10 Sudoeste 17 Sudoeste 0 -- -- 20
2019-06-02 15:00:00 31.9 5 Noroeste 13 Oeste 0 -- -- 23
2019-06-02 14:00:00 30.3 7 Noroeste 13 Sudeste 0 -- -- 27
2019-06-02 13:00:00 28.8 5 Sur 16 Sudeste 0 -- -- 28
2019-06-02 12:00:00 26.5 7 Noroeste 12 Este 0 -- -- 33
2019-06-02 11:00:00 24.7 4 Norte 10 Este 0 -- -- 36
2019-06-02 10:00:00 23.9 5 Este 10 Nordeste 0 -- -- 37
2019-06-02 09:00:00 21.8 5 Este 13 Sudeste 0 -- -- 41
2019-06-02 08:00:00 17.8 3 Este 10 Este 0 -- -- 52
2019-06-02 07:00:00 13.6 8 Sudeste 10 Este 0 -- -- 61
2019-06-02 06:00:00 14.3 7 Este 10 Sudeste 0 -- -- 57
2019-06-02 05:00:00 16.7 0 Calma 24 Sudeste 0 -- -- 51
2019-06-02 04:00:00 17.8 19 Sudeste 30 Sudeste 0 -- -- 47
2019-06-02 03:00:00 18.3 19 Sudeste 31 Sudeste 0 -- -- 44
2019-06-02 02:00:00 18.9 19 Sudeste 31 Sudeste 0 -- -- 41
2019-06-02 01:00:00 19.8 21 Sudeste 32 Sudeste 0 -- -- 39
2019-06-02 00:00:00 20.4 21 Sudeste 34 Sudeste 0 -- -- 39
2019-06-01 23:00:00 21.6 21 Sudeste 32 Sudeste 0 -- -- 35
2019-06-01 22:00:00 22.5 21 Sudeste 35 Sur 0 -- -- 33
2019-06-01 21:00:00 24.8 19 Sudeste 37 Sur 0 -- -- 30
2019-06-01 20:00:00 27.3 23 Sur 33 Sur 0 -- -- 28
2019-06-01 19:00:00 29.5 19 Sur 28 Sur 0 -- -- 26
2019-06-01 18:00:00 31.2 16 Sur 25 Sur 0 -- -- 24
2019-06-01 17:00:00 31.3 17 Sur 25 Sur 0 -- -- 24
2019-06-01 16:00:00 31.6 14 Sudoeste 22 Sudoeste 0 -- -- 24
2019-06-01 15:00:00 30.7 8 Sudoeste 18 Sudoeste 0 -- -- 27
2019-06-01 14:00:00 29.8 8 Sudeste 15 Sudoeste 0 -- -- 28
2019-06-01 13:00:00 28.3 6 Oeste 13 Oeste 0 -- -- 30
2019-06-01 12:00:00 26.1 5 Noroeste 11 Noroeste 0 -- -- 36
2019-06-01 11:00:00 24.3 5 Oeste 11 Sur 0 -- -- 40
2019-06-01 10:00:00 22.3 8 Sudeste 16 Sudeste 0 -- -- 46
2019-06-01 09:00:00 19.7 8 Sudeste 13 Sudeste 0 -- -- 59
2019-06-01 08:00:00 16.2 4 Este 7 Sudeste 0 -- -- 65
2019-06-01 07:00:00 12.4 4 Sudeste 9 Este 0 -- -- 75
2019-06-01 06:00:00 13.9 6 Sudeste 8 Este 0 -- -- 72
2019-06-01 05:00:00 15.4 4 Nordeste 25 Sudeste 0 -- -- 70
2019-06-01 04:00:00 17.8 17 Sudeste 26 Sudeste 0 -- -- 63
2019-06-01 03:00:00 18.2 14 Sudeste 21 Sudeste 0 -- -- 59
2019-06-01 02:00:00 18 3 Sudeste 11 Sudeste 0 -- -- 54
2019-06-01 01:00:00 19.7 6 Sudeste 22 Sudeste 0 -- -- 47
2019-06-01 00:00:00 21 15 Sudeste 28 Sudeste 0 -- -- 43
2019-05-31 23:00:00 22 14 Sur 24 Sudeste 0 -- -- 39
2019-05-31 22:00:00 23.4 14 Sur 28 Sudeste 0 -- -- 37
2019-05-31 21:00:00 26.1 17 Sur 31 Sur 0 -- -- 33
2019-05-31 20:00:00 28.1 19 Sur 34 Sur 0 -- -- 30
2019-05-31 19:00:00 30.5 19 Sur 27 Sur 0 -- -- 27
2019-05-31 18:00:00 31.5 14 Sudoeste 29 Sur 0 -- -- 27
2019-05-31 17:00:00 31.4 16 Sudoeste 33 Sudoeste 0 -- -- 27
2019-05-31 16:00:00 31.2 15 Sudoeste 27 Sur 0 -- -- 27
2019-05-31 15:00:00 30.7 10 Oeste 18 Oeste 0 -- -- 29
2019-05-31 14:00:00 30 7 Noroeste 19 Oeste 0 -- -- 29
2019-05-31 13:00:00 28.2 5 Noroeste 11 Nordeste 0 -- -- 32
2019-05-31 12:00:00 26.2 5 Oeste 11 Este 0 -- -- 33
2019-05-31 11:00:00 25 4 Nordeste 13 Sur 0 -- -- 37
2019-05-31 10:00:00 22 7 Sudeste 16 Sudeste 0 -- -- 45
2019-05-31 09:00:00 19.4 6 Sudeste 10 Sudeste 0 -- -- 55
2019-05-31 08:00:00 16.1 6 Este 8 Este 0 -- -- 65
2019-05-31 07:00:00 12.8 5 Sudeste 9 Sudeste 0 -- -- 71
2019-05-31 06:00:00 12 4 Este 8 Sudeste 0 -- -- 68
2019-05-31 05:00:00 12.7 4 Sudeste 9 Este 0 -- -- 65
2019-05-31 04:00:00 14.7 4 Este 9 Nordeste 0 -- -- 57
2019-05-31 03:00:00 14.5 4 Nordeste 10 Sudeste 0 -- -- 57
2019-05-31 02:00:00 15.8 6 Este 10 Sudeste 0 -- -- 54
2019-05-31 01:00:00 18.1 10 Sudeste 27 Sudeste 0 -- -- 47
2019-05-31 00:00:00 18.7 13 Sudeste 31 Sudeste 0 -- -- 48
2019-05-30 23:00:00 19.6 21 Sudeste 32 Sudeste 0 -- -- 49
2019-05-30 22:00:00 20.8 13 Sur 34 Sudeste 0 -- -- 48
2019-05-30 21:00:00 22.9 21 Sur 36 Sur 0 -- -- 42
2019-05-30 20:00:00 25.4 18 Sur 36 Sur 0 -- -- 36
2019-05-30 19:00:00 27 21 Sur 34 Sudeste 0 -- -- 34
2019-05-30 18:00:00 28.6 19 Sur 32 Sudoeste 0 -- -- 32
2019-05-30 17:00:00 29 20 Sur 32 Sudoeste 0 -- -- 33
2019-05-30 16:00:00 29.2 17 Sudoeste 29 Sur 0 -- -- 34
2019-05-30 15:00:00 28.9 12 Sudoeste 23 Sur 0 -- -- 36
2019-05-30 14:00:00 28.1 8 Oeste 21 Sudoeste 0 -- -- 37
2019-05-30 13:00:00 26.9 8 Sudeste 17 Este 0 -- -- 37
2019-05-30 12:00:00 25.5 6 Oeste 15 Norte 0 -- -- 42
2019-05-30 11:00:00 24.5 6 Norte 16 Este 0 -- -- 43
2019-05-30 10:00:00 23.8 7 Sudeste 14 Sudeste 0 -- -- 48
2019-05-30 09:00:00 20.3 6 Sudeste 10 Este 0 -- -- 57
2019-05-30 08:00:00 17.1 4 Sudeste 12 Sudeste 0 -- -- 68
2019-05-30 07:00:00 15 7 Sudeste 15 Sudeste 0 -- -- 75
2019-05-30 06:00:00 15.3 8 Sudeste 21 Sudeste 0 -- -- 77
2019-05-30 05:00:00 15.8 14 Sudeste 26 Sudeste 0 -- -- 76
2019-05-30 04:00:00 16.4 14 Sudeste 30 Sudeste 0 -- -- 71
2019-05-30 03:00:00 16.9 17 Sudeste 29 Sudeste 0 -- -- 67
2019-05-30 02:00:00 17.6 15 Sudeste 30 Sudeste 0 -- -- 59
2019-05-30 01:00:00 18.8 20 Sudeste 34 Sudeste 0 -- -- 54
2019-05-30 00:00:00 20.1 22 Sudeste 31 Sudeste 0 -- -- 48
2019-05-29 23:00:00 21.9 16 Sudeste 27 Sudeste 0 -- -- 45
2019-05-29 22:00:00 26 12 Este 19 Nordeste 0 -- -- 23
2019-05-29 21:00:00 29 14 Nordeste 29 Nordeste 0 -- -- 21
2019-05-29 20:00:00 30.2 15 Nordeste 26 Nordeste 0 -- -- 20
2019-05-29 19:00:00 30.7 14 Nordeste 22 Nordeste 0 -- -- 20
2019-05-29 18:00:00 31 12 Nordeste 26 Nordeste 0 -- -- 20
2019-05-29 17:00:00 31.2 11 Norte 24 Norte 0 -- -- 21
2019-05-29 16:00:00 30.6 11 Norte 24 Nordeste 0 -- -- 21
2019-05-29 15:00:00 30.8 10 Noroeste 19 Norte 0 -- -- 23
2019-05-29 14:00:00 29.8 6 Noroeste 16 Sur 0 -- -- 28
2019-05-29 13:00:00 28.8 6 Sudoeste 18 Sur 0 -- -- 30
2019-05-29 12:00:00 27 7 Oeste 13 Oeste 0 -- -- 35
2019-05-29 11:00:00 25.9 5 Noroeste 10 Nordeste 0 -- -- 41
2019-05-29 10:00:00 24.9 10 Este 21 Nordeste 0 -- -- 34
2019-05-29 09:00:00 23.4 9 Nordeste 22 Este 0 -- -- 35
2019-05-29 08:00:00 19.8 8 Este 17 Este 0 -- -- 56
2019-05-29 07:00:00 18.5 10 Sudeste 26 Este 0 -- -- 49
2019-05-29 06:00:00 19.8 8 Nordeste 24 Nordeste 0 -- -- 36
2019-05-29 05:00:00 20.9 13 Nordeste 24 Nordeste 0 -- -- 32
2019-05-29 04:00:00 18.5 11 Nordeste 16 Nordeste 0 -- -- 41
2019-05-29 03:00:00 18.2 4 Este 7 Sur 0 -- -- 53
2019-05-29 02:00:00 20.9 6 Sudeste 12 Sur 0 -- -- 47
2019-05-29 01:00:00 21.8 12 Nordeste 18 Nordeste 0 -- -- 44
2019-05-29 00:00:00 23.5 10 Oeste 16 Oeste 0 -- -- 40
2019-05-28 23:00:00 25.2 10 Oeste 27 Oeste 0 -- -- 37
2019-05-28 22:00:00 28 18 Oeste 31 Oeste 0 -- -- 34
2019-05-28 21:00:00 31.5 8 Oeste 17 Sudoeste 0 -- -- 28
2019-05-28 20:00:00 33.5 8 Oeste 15 Noroeste 0 -- -- 26
2019-05-28 19:00:00 33.7 7 Noroeste 17 Oeste 0 -- -- 24
2019-05-28 18:00:00 34.2 10 Oeste 19 Oeste 0 -- -- 24
2019-05-28 17:00:00 33.9 5 Noroeste 18 Noroeste 0 -- -- 24
2019-05-28 16:00:00 33 12 Oeste 22 Noroeste 0 -- -- 27
2019-05-28 15:00:00 32.4 8 Sudoeste 19 Oeste 0 -- -- 29
2019-05-28 14:00:00 31.3 12 Oeste 20 Oeste 0 -- -- 30
2019-05-28 13:00:00 30.3 9 Oeste 15 Oeste 0 -- -- 33
2019-05-28 12:00:00 28.7 4 Noroeste 8 Noroeste 0 -- -- 35
2019-05-28 11:00:00 26.8 5 Noroeste 8 Oeste 0 -- -- 38
2019-05-28 10:00:00 24.9 4 Noroeste 6 Oeste 0 -- -- 43
2019-05-28 09:00:00 22.9 2 Noroeste 7 Sudeste 0 -- -- 53
2019-05-28 08:00:00 18 2 Sudeste 9 Sudeste 0 -- -- 58
2019-05-28 07:00:00 16 2 Sudeste 9 Este 0 -- -- 59
2019-05-28 06:00:00 16.9 3 Sudeste 10 Sudeste 0 -- -- 57
2019-05-28 05:00:00 17.8 9 Sudeste 12 Sudeste 0 -- -- 54
2019-05-28 04:00:00 18.4 5 Sudeste 6 Sudeste 0 -- -- 54
2019-05-28 03:00:00 19 2 Sudeste 5 Sur 0 -- -- 52
2019-05-28 02:00:00 20.5 5 Sur 10 Sudeste 0 -- -- 48
2019-05-28 01:00:00 21.9 5 Sur 14 Sudoeste 0 -- -- 46
2019-05-28 00:00:00 23.6 11 Oeste 31 Sudoeste 0 -- -- 43
2019-05-27 23:00:00 25.9 19 Sudoeste 30 Sudoeste 0 -- -- 35
2019-05-27 22:00:00 27.3 15 Oeste 36 Oeste 0 -- -- 34
2019-05-27 21:00:00 30.2 12 Sudoeste 23 Sudoeste 0 -- -- 25
2019-05-27 20:00:00 32.1 14 Oeste 21 Sudoeste 0 -- -- 25
2019-05-27 19:00:00 33.4 8 Oeste 19 Sudoeste 0 -- -- 23
2019-05-27 18:00:00 33.3 9 Oeste 19 Oeste 0 -- -- 23
2019-05-27 17:00:00 32.5 12 Noroeste 19 Sudoeste 0 -- -- 26
2019-05-27 16:00:00 31.5 7 Norte 17 Oeste 0 -- -- 26
2019-05-27 15:00:00 31.5 7 Noroeste 17 Noroeste 0 -- -- 25
2019-05-27 14:00:00 30.2 7 Sudoeste 17 Oeste 0 -- -- 25
2019-05-27 13:00:00 28.8 6 Norte 12 Nordeste 0 -- -- 26
2019-05-27 12:00:00 26.7 4 Noroeste 9 Noroeste 0 -- -- 34
2019-05-27 11:00:00 25.3 4 Noroeste 9 Noroeste 0 -- -- 38
2019-05-27 10:00:00 23.7 3 Sudoeste 12 Sudeste 0 -- -- 41
2019-05-27 09:00:00 22.1 6 Este 10 Sudeste 0 -- -- 47
2019-05-27 08:00:00 17.6 2 Este 15 Este 0 -- -- 58
2019-05-27 07:00:00 15.6 9 Sudeste 13 Este 0 -- -- 62
2019-05-27 06:00:00 14.3 8 Sudeste 12 Sudeste 0 -- -- 68
2019-05-27 05:00:00 13.5 8 Sudeste 10 Sudeste 0 -- -- 68
2019-05-27 04:00:00 14.1 6 Sudeste 10 Sudeste 0 -- -- 66
2019-05-27 03:00:00 15.4 5 Sudeste 9 Sudeste 0 -- -- 63
2019-05-27 02:00:00 17.9 4 Sudeste 8 Sudoeste 0 -- -- 58
2019-05-27 01:00:00 19.3 3 Sur 17 Sudoeste 0 -- -- 54
2019-05-27 00:00:00 20.2 7 Oeste 22 Sudoeste 0 -- -- 55
2019-05-26 23:00:00 21.5 3 Este 5 Este 0 -- -- 34
2019-05-26 22:00:00 25.2 3 Este 12 Norte 0 -- -- 30
2019-05-26 21:00:00 28 8 Norte 16 Norte 0 -- -- 27
2019-05-26 20:00:00 29.8 7 Norte 23 Noroeste 0 -- -- 24
2019-05-26 19:00:00 30.5 10 Noroeste 23 Oeste 0 -- -- 25
2019-05-26 18:00:00 30.3 8 Oeste 18 Noroeste 0 -- -- 27
2019-05-26 17:00:00 29.7 11 Oeste 33 Noroeste 0 -- -- 28
2019-05-26 16:00:00 29 9 Noroeste 23 Noroeste 0 -- -- 31
2019-05-26 15:00:00 28.1 10 Oeste 23 Noroeste 0 -- -- 32
2019-05-26 14:00:00 27.9 9 Noroeste 19 Noroeste 0 -- -- 33
2019-05-26 13:00:00 25.6 4 Norte 10 Norte 0 -- -- 36
2019-05-26 12:00:00 24.2 4 Noroeste 13 Sudoeste 0 -- -- 41
2019-05-26 11:00:00 23 8 Sur 15 Sur 0 -- -- 42
2019-05-26 10:00:00 21.7 8 Sudeste 17 Sudeste 0 -- -- 45
2019-05-26 09:00:00 19.3 12 Sudeste 19 Sudeste 0 -- -- 53
2019-05-26 08:00:00 16 11 Sudeste 19 Sudeste 0 -- -- 60
2019-05-26 07:00:00 15 13 Sudeste 21 Sudeste 0 -- -- 61
2019-05-26 06:00:00 14.5 14 Sudeste 19 Sudeste 0 -- -- 64
2019-05-26 05:00:00 15.1 13 Sudeste 19 Sudeste 0 -- -- 63
2019-05-26 04:00:00 15.8 14 Sudeste 24 Sudeste 0 -- -- 60
2019-05-26 03:00:00 16.3 14 Sudeste 20 Sudeste 0 -- -- 57
2019-05-26 02:00:00 17.2 14 Sudeste 19 Sudeste 0 -- -- 57
2019-05-26 01:00:00 18.2 12 Sudeste 23 Sur 0 -- -- 55
2019-05-26 00:00:00 19.4 15 Sudeste 24 Sudeste 0 -- -- 52
2019-05-25 23:00:00 20.2 8 Sudeste 18 Sur 0 -- -- 43
2019-05-25 22:00:00 23.2 2 Este 14 Norte 0 -- -- 32
2019-05-25 21:00:00 26 9 Norte 22 Norte 0 -- -- 27
2019-05-25 20:00:00 27.1 10 Nordeste 25 Nordeste 0 -- -- 27
2019-05-25 19:00:00 28 6 Norte 30 Norte 0 -- -- 30
2019-05-25 18:00:00 28 8 Norte 28 Nordeste 0 -- -- 30
2019-05-25 17:00:00 27.6 9 Norte 27 Nordeste 0 -- -- 31
2019-05-25 16:00:00 26.8 13 Nordeste 30 Nordeste 0 -- -- 31
2019-05-25 15:00:00 26 10 Nordeste 29 Nordeste 0 -- -- 34
2019-05-25 14:00:00 24.7 10 Nordeste 27 Norte 0 -- -- 35
2019-05-25 13:00:00 23.7 14 Nordeste 30 Nordeste 0 -- -- 39
2019-05-25 12:00:00 22.9 14 Norte 29 Nordeste 0 -- -- 41
2019-05-25 11:00:00 21.9 13 Norte 27 Norte 0 -- -- 46
2019-05-25 10:00:00 20.3 17 Nordeste 27 Nordeste 0 -- -- 49
2019-05-25 09:00:00 20.1 3 Este 12 Este 0 -- -- 65
2019-05-25 08:00:00 16.8 4 Este 13 Este 0 -- -- 79
2019-05-25 07:00:00 14.5 10 Sudeste 13 Sudeste 0 -- -- 84
2019-05-25 06:00:00 14.6 9 Sudeste 11 Sudeste 0 -- -- 83
2019-05-25 05:00:00 14.4 7 Este 13 Sudeste 0 -- -- 78
2019-05-25 04:00:00 15 5 Sudeste 13 Sudeste 0 -- -- 64
2019-05-25 03:00:00 16 7 Sur 9 Sur 0 -- -- 61
2019-05-25 02:00:00 16.7 0 Calma 6 Noroeste 0 -- -- 61
2019-05-25 01:00:00 18.4 3 Noroeste 10 Noroeste 0 -- -- 57
2019-05-25 00:00:00 20 3 Sudeste 23 Oeste 0 -- -- 50
2019-05-24 23:00:00 21.5 16 Oeste 35 Oeste 0 -- -- 46
2019-05-24 22:00:00 23.8 21 Oeste 33 Oeste 0 -- -- 41
2019-05-24 21:00:00 26.1 10 Oeste 18 Sudoeste 0 -- -- 35
2019-05-24 20:00:00 29 11 Oeste 21 Oeste 0 -- -- 29
2019-05-24 19:00:00 28.6 6 Norte 21 Oeste 0 -- -- 29
2019-05-24 18:00:00 29.5 11 Noroeste 25 Oeste 0 -- -- 28
2019-05-24 17:00:00 29.3 9 Noroeste 27 Oeste 0 -- -- 28
2019-05-24 16:00:00 27.9 12 Oeste 26 Oeste 0 -- -- 29
2019-05-24 15:00:00 27.1 8 Sudoeste 24 Oeste 0 -- -- 32
2019-05-24 14:00:00 25.8 10 Oeste 26 Sudoeste 0 -- -- 38
2019-05-24 13:00:00 24.8 13 Oeste 24 Oeste 0 -- -- 44
2019-05-24 12:00:00 23.2 8 Oeste 17 Oeste 0 -- -- 48
2019-05-24 11:00:00 21.7 8 Oeste 13 Oeste 0 -- -- 51
2019-05-24 10:00:00 19.4 3 Sur 12 Sudeste 0 -- -- 54
2019-05-24 09:00:00 17.1 8 Sudeste 12 Sudeste 0 -- -- 60
2019-05-24 08:00:00 14.8 5 Sudeste 9 Sudeste 0 -- -- 68
2019-05-24 07:00:00 13.9 0 Calma 4 Sudeste 0 -- -- 67
2019-05-24 06:00:00 14.9 0 Calma 7 Sudoeste 0 -- -- 64
2019-05-24 05:00:00 15.7 4 Sudeste 9 Sudeste 0 -- -- 60
2019-05-24 04:00:00 17.7 2 Oeste 9 Sudoeste 0 -- -- 55
2019-05-24 03:00:00 19.1 3 Sudoeste 14 Sudoeste 0 -- -- 50
2019-05-24 02:00:00 20.7 6 Sudoeste 19 Sudoeste 0 -- -- 46
2019-05-24 01:00:00 21.5 12 Sudoeste 19 Sudoeste 0 -- -- 44
2019-05-24 00:00:00 22.8 10 Sudoeste 21 Sudoeste 0 -- -- 42
2019-05-23 23:00:00 24 8 Sur 19 Sudoeste 0 -- -- 36
2019-05-23 22:00:00 24.9 5 Sudoeste 10 Sudoeste 0 -- -- 35
2019-05-23 21:00:00 27 8 Oeste 24 Oeste 0 -- -- 31
2019-05-23 20:00:00 28.3 15 Oeste 30 Oeste 0 -- -- 28
2019-05-23 19:00:00 30.8 14 Oeste 24 Noroeste 0 -- -- 26
2019-05-23 18:00:00 31.5 10 Noroeste 22 Oeste 0 -- -- 25
2019-05-23 17:00:00 30.7 9 Oeste 26 Oeste 0 -- -- 24
2019-05-23 16:00:00 30.6 13 Oeste 26 Noroeste 0 -- -- 26
2019-05-23 15:00:00 30.4 8 Noroeste 20 Oeste 0 -- -- 26
2019-05-23 14:00:00 29.1 11 Oeste 23 Oeste 0 -- -- 28
2019-05-23 13:00:00 28.2 5 Norte 9 Noroeste 0 -- -- 30
2019-05-23 12:00:00 26.5 6 Oeste 14 Norte 0 -- -- 31
2019-05-23 11:00:00 25.5 4 Sudeste 13 Sudeste 0 -- -- 34
2019-05-23 10:00:00 23.1 8 Sudeste 19 Sudeste 0 -- -- 39
2019-05-23 09:00:00 20.6 15 Sudeste 22 Sudeste 0 -- -- 46
2019-05-23 08:00:00 17.1 16 Sudeste 23 Sudeste 0 -- -- 55
2019-05-23 07:00:00 15.1 6 Sudeste 19 Sudeste 0 -- -- 59
2019-05-23 06:00:00 16.5 15 Sudeste 20 Sudeste 0 -- -- 55
2019-05-23 05:00:00 17.3 14 Sudeste 21 Sudeste 0 -- -- 52
2019-05-23 04:00:00 17.7 13 Sudeste 25 Sudeste 0 -- -- 50
2019-05-23 03:00:00 18.5 17 Sudeste 24 Sudeste 0 -- -- 47
2019-05-23 02:00:00 18.9 16 Sudeste 23 Sudeste 0 -- -- 45
2019-05-23 01:00:00 19.4 13 Sudeste 19 Sudeste 0 -- -- 43
2019-05-23 00:00:00 20.8 15 Sur 22 Sudeste 0 -- -- 42
2019-05-22 23:00:00 22 15 Sudeste 22 Sur 0 -- -- 39
2019-05-22 22:00:00 23.7 13 Sur 20 Sudeste 0 -- -- 35
2019-05-22 21:00:00 26.3 12 Sur 22 Sur 0 -- -- 33
2019-05-22 20:00:00 28.2 13 Sur 23 Sur 0 -- -- 30
2019-05-22 19:00:00 27.9 12 Sur 22 Sur 0 -- -- 32
2019-05-22 18:00:00 30.4 9 Sudeste 19 Noroeste 0 -- -- 29
2019-05-22 17:00:00 28.4 13 Oeste 22 Noroeste 0 -- -- 32
2019-05-22 16:00:00 28.4 4 Noroeste 15 Oeste 0 -- -- 30
2019-05-22 15:00:00 28.6 12 Oeste 20 Oeste 0 -- -- 30
2019-05-22 14:00:00 27.7 7 Noroeste 11 Norte 0 -- -- 33
2019-05-22 13:00:00 26.2 6 Sudoeste 11 Noroeste 0 -- -- 37
2019-05-22 12:00:00 25 6 Norte 13 Norte 0 -- -- 39
2019-05-22 11:00:00 24 9 Sudeste 21 Sudeste 0 -- -- 42
2019-05-22 10:00:00 21.3 8 Sudeste 14 Este 0 -- -- 52
2019-05-22 09:00:00 18.2 7 Sudeste 22 Sudeste 0 -- -- 63
2019-05-22 08:00:00 15.6 12 Sudeste 19 Sudeste 0 -- -- 72
2019-05-22 07:00:00 13.8 14 Sudeste 21 Sudeste 0 -- -- 72
2019-05-22 06:00:00 13.6 14 Sudeste 18 Sudeste 0 -- -- 76
2019-05-22 05:00:00 13.5 8 Sudeste 13 Sudeste 0 -- -- 76
2019-05-22 04:00:00 13.1 7 Sudeste 9 Sudeste 0 -- -- 79
2019-05-22 03:00:00 13.8 6 Sudeste 10 Sudeste 0 -- -- 75
2019-05-22 02:00:00 15.4 3 Sur 9 Oeste 0 -- -- 72
2019-05-22 01:00:00 17 8 Oeste 20 Oeste 0 -- -- 68
2019-05-22 00:00:00 18.1 8 Oeste 21 Sudoeste 0 -- -- 60